Kinokawa Maru — 3FXG2 — position and weather

sailwx.info

Track history (hours):
 
Tides and Currents Weather Stations Pressure Air Temp Water Temp Dewpoint Dewpoint Depression Visibility Wind Speed Wind Dir Waves Ship Positions

Kinokawa Maru

Last reported at 2018-Jan-19 02:22 UTC. Time now 2018-Jan-23 08:05 UTC.
Position N 34°25' E 133°58'.

Length 293 m; draft 13.6 m.

Type: Cargo ship. MMSI: 351787000.

Date/timePositionNaut miles runAvg speedWind from/ knotsBaromVisibWave heightAir tempDewpointWater temp
2018-Jan-19 02:22N 34°25' E 133°58'512.9
2018-Jan-19 02:00N 34°27' E 134°03'814.0
2018-Jan-19 01:25N 34°25' E 134°13'613.9
2018-Jan-19 01:00N 34°24' E 134°20'713.8
2018-Jan-19 00:30N 34°27' E 134°27'714.1
2018-Jan-19 00:01N 34°29' E 134°35'714.2
2018-Jan-18 23:30N 34°32' E 134°43'815.4
2018-Jan-18 23:00N 34°35' E 134°52'714.8
2018-Jan-18 22:31N 34°38' E 135°00'611.6
2018-Jan-18 22:01N 34°35' E 135°06'3 6.7
2018-Jan-18 21:30N 34°32' E 135°08'5 9.5
2018-Jan-18 21:00N 34°27' E 135°05'612.9
2018-Jan-18 20:30N 34°21' E 135°02'612.4
2018-Jan-18 20:00N 34°16' E 134°59'611.0
2018-Jan-18 19:30N 34°10' E 134°59'4 8.8
2018-Jan-18 19:00N 34°06' E 134°59'4 8.5
2018-Jan-18 18:30N 34°02' E 134°59'5 9.7
2018-Jan-18 18:00N 33°57' E 134°58'510.5
2018-Jan-18 17:31N 33°52' E 134°58'510.6
2018-Jan-18 17:00N 33°47' E 134°56'510.6
2018-Jan-18 16:30N 33°42' E 134°53'  
2018-Jan-11 10:42N 34°09' E 138°07'411.1
2018-Jan-11 10:22N 34°11' E 138°12'511.2
2018-Jan-11 09:57N 34°12' E 138°17'710.7
2018-Jan-11 09:19N 34°16' E 138°24'810.2
2018-Jan-11 08:34N 34°19' E 138°32'1 9.9
2018-Jan-11 08:30N 34°19' E 138°33'5 9.7
2018-Jan-11 08:00N 34°21' E 138°38'5 9.5
2018-Jan-11 07:30N 34°24' E 138°43'5 9.8
2018-Jan-11 07:00N 34°26' E 138°49'5 9.5
2018-Jan-11 06:30N 34°28' E 138°54'5 9.2
2018-Jan-11 06:00N 34°30' E 138°59'5 8.8
2018-Jan-11 05:26N 34°33' E 139°03'410.0
2018-Jan-11 05:00N 34°37' E 139°06'1010.8
2018-Jan-11 04:05N 34°46' E 139°12'111.2
2018-Jan-11 03:59N 34°47' E 139°13'610.9
2018-Jan-11 03:27N 34°51' E 139°18'510.1
2018-Jan-11 03:01N 34°53' E 139°22'5 9.2
2018-Jan-11 02:30N 34°54' E 139°28'5 9.2
2018-Jan-11 01:59N 34°56' E 139°33'510.2
2018-Jan-11 01:30N 34°59' E 139°38'611.3
2018-Jan-11 01:00N 35°04' E 139°42'5 9.8
2018-Jan-11 00:30N 35°08' E 139°44'4 8.2
2018-Jan-11 00:00N 35°12' E 139°45'4 8.4
2018-Jan-10 23:30N 35°16' E 139°46'510.8
2018-Jan-10 23:00N 35°21' E 139°42'510.6
2018-Jan-10 22:30N 35°26' E 139°44'3 5.6
2018-Jan-10 22:00N 35°29' E 139°45'0 0.3
2018-Jan-10 21:28N 35°29' E 139°44'0 0.0
2018-Jan-10 20:58N 35°29' E 139°44'0 0.0
2018-Jan-10 20:28N 35°29' E 139°44'0 0.0
2018-Jan-10 19:58N 35°29' E 139°44'0 0.0
2018-Jan-10 19:28N 35°29' E 139°44'0 0.0
2018-Jan-10 18:58N 35°29' E 139°44'0 0.0
2018-Jan-10 18:28N 35°29' E 139°44'0 0.0
2018-Jan-10 17:55N 35°29' E 139°44'0 0.0
2018-Jan-10 17:28N 35°29' E 139°44'0 0.0
2018-Jan-10 16:55N 35°29' E 139°44'0 0.0
2018-Jan-10 16:28N 35°29' E 139°44'0 0.0
2018-Jan-10 15:55N 35°29' E 139°44'0 0.0
2018-Jan-10 15:28N 35°29' E 139°44'0 0.0
2018-Jan-10 14:58N 35°29' E 139°44'0 0.0
2018-Jan-10 14:28N 35°29' E 139°44'0 0.0
2018-Jan-10 13:55N 35°29' E 139°44'0 0.0
2018-Jan-10 13:28N 35°29' E 139°44'0 0.0
2018-Jan-10 12:55N 35°29' E 139°44'0 0.0
2018-Jan-10 12:28N 35°29' E 139°44'0 0.0
2018-Jan-10 11:58N 35°29' E 139°44'0 0.0
2018-Jan-10 11:28N 35°29' E 139°44'0 0.0
2018-Jan-10 10:58N 35°29' E 139°44'0 0.0
2018-Jan-10 10:28N 35°29' E 139°44'0 0.0
2018-Jan-10 09:55N 35°29' E 139°44'0 0.0
2018-Jan-10 09:28N 35°29' E 139°44'0 0.0
2018-Jan-10 08:58N 35°29' E 139°44'0 0.0
2018-Jan-10 08:28N 35°29' E 139°44'0 0.0
2018-Jan-10 07:58N 35°29' E 139°44'0 0.0
2018-Jan-10 07:28N 35°29' E 139°44'0 0.0
2018-Jan-10 06:52N 35°29' E 139°44'0 0.0
2018-Jan-10 06:22N 35°29' E 139°44'0 0.0
2018-Jan-10 05:58N 35°29' E 139°44'0 0.0
2018-Jan-10 05:28N 35°29' E 139°44'0 0.0
2018-Jan-10 04:55N 35°29' E 139°44'0 0.0
2018-Jan-10 04:28N 35°29' E 139°44'0 0.0
2018-Jan-10 03:58N 35°29' E 139°44'0 0.0
2018-Jan-10 03:28N 35°29' E 139°44'0 0.0
2018-Jan-10 02:58N 35°29' E 139°44'0 0.0
2018-Jan-10 02:22N 35°29' E 139°44'0 0.0
2018-Jan-10 01:58N 35°29' E 139°44'0 0.0
2018-Jan-10 01:25N 35°29' E 139°44'0 0.0
2018-Jan-10 00:58N 35°29' E 139°44'0 0.0
2018-Jan-10 00:28N 35°29' E 139°44'0 0.0
2018-Jan-09 23:58N 35°29' E 139°44'0 0.0
2018-Jan-09 23:28N 35°29' E 139°44'0 0.0
2018-Jan-09 22:58N 35°29' E 139°44'0 0.0
2018-Jan-09 22:28N 35°29' E 139°44'0 0.0
2018-Jan-09 21:58N 35°29' E 139°44'0 0.0
2018-Jan-09 21:28N 35°29' E 139°44'0 0.0
2018-Jan-09 20:58N 35°29' E 139°44'0 0.0
2018-Jan-09 20:28N 35°29' E 139°44'0 0.0
2018-Jan-09 19:55N 35°29' E 139°44'0 0.0
2018-Jan-09 19:28N 35°29' E 139°44'0 0.0
2018-Jan-09 18:55N 35°29' E 139°44'0 0.0
2018-Jan-09 18:28N 35°29' E 139°44'0 0.0
2018-Jan-09 17:55N 35°29' E 139°44'0 0.0
2018-Jan-09 17:28N 35°29' E 139°44'0 0.0
2018-Jan-09 16:58N 35°29' E 139°44'0 0.0
2018-Jan-09 16:28N 35°29' E 139°44'0 0.0
2018-Jan-09 15:58N 35°29' E 139°44'0 0.0
2018-Jan-09 15:28N 35°29' E 139°44'0 0.0
2018-Jan-09 14:58N 35°29' E 139°44'0 0.0
2018-Jan-09 14:28N 35°29' E 139°44'0 0.0
2018-Jan-09 13:55N 35°29' E 139°44'0 0.0
2018-Jan-09 13:28N 35°29' E 139°44'0 0.0
2018-Jan-09 12:58N 35°29' E 139°44'0 0.0
2018-Jan-09 12:25N 35°29' E 139°44'0 0.0
2018-Jan-09 11:58N 35°29' E 139°44'0 0.0
2018-Jan-09 11:22N 35°29' E 139°44'0 0.0
2018-Jan-09 10:52N 35°29' E 139°44'0 0.0
2018-Jan-09 10:28N 35°29' E 139°44'0 0.0
2018-Jan-09 09:58N 35°29' E 139°44'0 0.0
2018-Jan-09 09:28N 35°29' E 139°44'0 0.0
2018-Jan-09 08:55N 35°29' E 139°44'0 0.0
2018-Jan-09 08:22N 35°29' E 139°44'0 0.0
2018-Jan-09 07:58N 35°29' E 139°44'0 0.0
2018-Jan-09 07:22N 35°29' E 139°44'0 0.0
2018-Jan-09 06:52N 35°29' E 139°44'0 0.0
2018-Jan-09 06:28N 35°29' E 139°44'0 0.0
2018-Jan-09 05:55N 35°29' E 139°44'0 0.0
2018-Jan-09 05:25N 35°29' E 139°44'0 0.0
2018-Jan-09 04:55N 35°29' E 139°44'0 0.0
2018-Jan-09 04:25N 35°29' E 139°44'0 0.0
2018-Jan-09 03:58N 35°29' E 139°44'0 0.0
2018-Jan-09 03:25N 35°29' E 139°44'0 0.0
2018-Jan-09 02:58N 35°29' E 139°44'0 0.0
2018-Jan-09 02:28N 35°29' E 139°44'  
Track history (hours):
 
Tides and Currents Weather Stations Pressure Air Temp Water Temp Dewpoint Dewpoint Depression Visibility Wind Speed Wind Dir Waves Ship Positions

Kinokawa Maru

Last reported at 2018-Jan-19 02:22 UTC. Time now 2018-Jan-23 08:05 UTC.
Position N 34°25' E 133°58'.

Length 293 m; draft 13.6 m.

Type: Cargo ship. MMSI: 351787000.

Date/timePositionNaut miles runAvg speedWind from/ knotsBaromVisibWave heightAir tempDewpointWater temp
2018-Jan-19 02:22N 34°25' E 133°58'512.9
2018-Jan-19 02:00N 34°27' E 134°03'814.0
2018-Jan-19 01:25N 34°25' E 134°13'613.9
2018-Jan-19 01:00N 34°24' E 134°20'713.8
2018-Jan-19 00:30N 34°27' E 134°27'714.1
2018-Jan-19 00:01N 34°29' E 134°35'714.2
2018-Jan-18 23:30N 34°32' E 134°43'815.4
2018-Jan-18 23:00N 34°35' E 134°52'714.8
2018-Jan-18 22:31N 34°38' E 135°00'611.6
2018-Jan-18 22:01N 34°35' E 135°06'3 6.7
2018-Jan-18 21:30N 34°32' E 135°08'5 9.5
2018-Jan-18 21:00N 34°27' E 135°05'612.9
2018-Jan-18 20:30N 34°21' E 135°02'612.4
2018-Jan-18 20:00N 34°16' E 134°59'611.0
2018-Jan-18 19:30N 34°10' E 134°59'4 8.8
2018-Jan-18 19:00N 34°06' E 134°59'4 8.5
2018-Jan-18 18:30N 34°02' E 134°59'5 9.7
2018-Jan-18 18:00N 33°57' E 134°58'510.5
2018-Jan-18 17:31N 33°52' E 134°58'510.6
2018-Jan-18 17:00N 33°47' E 134°56'510.6
2018-Jan-18 16:30N 33°42' E 134°53'  
2018-Jan-11 10:42N 34°09' E 138°07'411.1
2018-Jan-11 10:22N 34°11' E 138°12'511.2
2018-Jan-11 09:57N 34°12' E 138°17'710.7
2018-Jan-11 09:19N 34°16' E 138°24'810.2
2018-Jan-11 08:34N 34°19' E 138°32'1 9.9
2018-Jan-11 08:30N 34°19' E 138°33'5 9.7
2018-Jan-11 08:00N 34°21' E 138°38'5 9.5
2018-Jan-11 07:30N 34°24' E 138°43'5 9.8
2018-Jan-11 07:00N 34°26' E 138°49'5 9.5
2018-Jan-11 06:30N 34°28' E 138°54'5 9.2
2018-Jan-11 06:00N 34°30' E 138°59'5 8.8
2018-Jan-11 05:26N 34°33' E 139°03'410.0
2018-Jan-11 05:00N 34°37' E 139°06'1010.8
2018-Jan-11 04:05N 34°46' E 139°12'111.2
2018-Jan-11 03:59N 34°47' E 139°13'610.9
2018-Jan-11 03:27N 34°51' E 139°18'510.1
2018-Jan-11 03:01N 34°53' E 139°22'5 9.2
2018-Jan-11 02:30N 34°54' E 139°28'5 9.2
2018-Jan-11 01:59N 34°56' E 139°33'510.2
2018-Jan-11 01:30N 34°59' E 139°38'611.3
2018-Jan-11 01:00N 35°04' E 139°42'5 9.8
2018-Jan-11 00:30N 35°08' E 139°44'4 8.2
2018-Jan-11 00:00N 35°12' E 139°45'4 8.4
2018-Jan-10 23:30N 35°16' E 139°46'510.8
2018-Jan-10 23:00N 35°21' E 139°42'510.6
2018-Jan-10 22:30N 35°26' E 139°44'3 5.6
2018-Jan-10 22:00N 35°29' E 139°45'0 0.3
2018-Jan-10 21:28N 35°29' E 139°44'0 0.0
2018-Jan-10 20:58N 35°29' E 139°44'0 0.0
2018-Jan-10 20:28N 35°29' E 139°44'0 0.0
2018-Jan-10 19:58N 35°29' E 139°44'0 0.0
2018-Jan-10 19:28N 35°29' E 139°44'0 0.0
2018-Jan-10 18:58N 35°29' E 139°44'0 0.0
2018-Jan-10 18:28N 35°29' E 139°44'0 0.0
2018-Jan-10 17:55N 35°29' E 139°44'0 0.0
2018-Jan-10 17:28N 35°29' E 139°44'0 0.0
2018-Jan-10 16:55N 35°29' E 139°44'0 0.0
2018-Jan-10 16:28N 35°29' E 139°44'0 0.0
2018-Jan-10 15:55N 35°29' E 139°44'0 0.0
2018-Jan-10 15:28N 35°29' E 139°44'0 0.0
2018-Jan-10 14:58N 35°29' E 139°44'0 0.0
2018-Jan-10 14:28N 35°29' E 139°44'0 0.0
2018-Jan-10 13:55N 35°29' E 139°44'0 0.0
2018-Jan-10 13:28N 35°29' E 139°44'0 0.0
2018-Jan-10 12:55N 35°29' E 139°44'0 0.0
2018-Jan-10 12:28N 35°29' E 139°44'0 0.0
2018-Jan-10 11:58N 35°29' E 139°44'0 0.0
2018-Jan-10 11:28N 35°29' E 139°44'0 0.0
2018-Jan-10 10:58N 35°29' E 139°44'0 0.0
2018-Jan-10 10:28N 35°29' E 139°44'0 0.0
2018-Jan-10 09:55N 35°29' E 139°44'0 0.0
2018-Jan-10 09:28N 35°29' E 139°44'0 0.0
2018-Jan-10 08:58N 35°29' E 139°44'0 0.0
2018-Jan-10 08:28N 35°29' E 139°44'0 0.0
2018-Jan-10 07:58N 35°29' E 139°44'0 0.0
2018-Jan-10 07:28N 35°29' E 139°44'0 0.0
2018-Jan-10 06:52N 35°29' E 139°44'0 0.0
2018-Jan-10 06:22N 35°29' E 139°44'0 0.0
2018-Jan-10 05:58N 35°29' E 139°44'0 0.0
2018-Jan-10 05:28N 35°29' E 139°44'0 0.0
2018-Jan-10 04:55N 35°29' E 139°44'0 0.0
2018-Jan-10 04:28N 35°29' E 139°44'0 0.0
2018-Jan-10 03:58N 35°29' E 139°44'0 0.0
2018-Jan-10 03:28N 35°29' E 139°44'0 0.0
2018-Jan-10 02:58N 35°29' E 139°44'0 0.0
2018-Jan-10 02:22N 35°29' E 139°44'0 0.0
2018-Jan-10 01:58N 35°29' E 139°44'0 0.0
2018-Jan-10 01:25N 35°29' E 139°44'0 0.0
2018-Jan-10 00:58N 35°29' E 139°44'0 0.0
2018-Jan-10 00:28N 35°29' E 139°44'0 0.0
2018-Jan-09 23:58N 35°29' E 139°44'0 0.0
2018-Jan-09 23:28N 35°29' E 139°44'0 0.0
2018-Jan-09 22:58N 35°29' E 139°44'0 0.0
2018-Jan-09 22:28N 35°29' E 139°44'0 0.0
2018-Jan-09 21:58N 35°29' E 139°44'0 0.0
2018-Jan-09 21:28N 35°29' E 139°44'0 0.0
2018-Jan-09 20:58N 35°29' E 139°44'0 0.0
2018-Jan-09 20:28N 35°29' E 139°44'0 0.0
2018-Jan-09 19:55N 35°29' E 139°44'0 0.0
2018-Jan-09 19:28N 35°29' E 139°44'0 0.0
2018-Jan-09 18:55N 35°29' E 139°44'0 0.0
2018-Jan-09 18:28N 35°29' E 139°44'0 0.0
2018-Jan-09 17:55N 35°29' E 139°44'0 0.0
2018-Jan-09 17:28N 35°29' E 139°44'0 0.0
2018-Jan-09 16:58N 35°29' E 139°44'0 0.0
2018-Jan-09 16:28N 35°29' E 139°44'0 0.0
2018-Jan-09 15:58N 35°29' E 139°44'0 0.0
2018-Jan-09 15:28N 35°29' E 139°44'0 0.0
2018-Jan-09 14:58N 35°29' E 139°44'0 0.0
2018-Jan-09 14:28N 35°29' E 139°44'0 0.0
2018-Jan-09 13:55N 35°29' E 139°44'0 0.0
2018-Jan-09 13:28N 35°29' E 139°44'0 0.0
2018-Jan-09 12:58N 35°29' E 139°44'0 0.0
2018-Jan-09 12:25N 35°29' E 139°44'0 0.0
2018-Jan-09 11:58N 35°29' E 139°44'0 0.0
2018-Jan-09 11:22N 35°29' E 139°44'0 0.0
2018-Jan-09 10:52N 35°29' E 139°44'0 0.0
2018-Jan-09 10:28N 35°29' E 139°44'0 0.0
2018-Jan-09 09:58N 35°29' E 139°44'0 0.0
2018-Jan-09 09:28N 35°29' E 139°44'0 0.0
2018-Jan-09 08:55N 35°29' E 139°44'0 0.0
2018-Jan-09 08:22N 35°29' E 139°44'0 0.0
2018-Jan-09 07:58N 35°29' E 139°44'0 0.0
2018-Jan-09 07:22N 35°29' E 139°44'0 0.0
2018-Jan-09 06:52N 35°29' E 139°44'0 0.0
2018-Jan-09 06:28N 35°29' E 139°44'0 0.0
2018-Jan-09 05:55N 35°29' E 139°44'0 0.0
2018-Jan-09 05:25N 35°29' E 139°44'0 0.0
2018-Jan-09 04:55N 35°29' E 139°44'0 0.0
2018-Jan-09 04:25N 35°29' E 139°44'0 0.0
2018-Jan-09 03:58N 35°29' E 139°44'0 0.0
2018-Jan-09 03:25N 35°29' E 139°44'0 0.0
2018-Jan-09 02:58N 35°29' E 139°44'0 0.0
2018-Jan-09 02:28N 35°29' E 139°44'  

Dump ship's entire track history